Terminal Aerodrome Forecast
Issued by NWS

Home | Current Version | Previous Version | Text Only | Print | Product List | Glossary On
Versions: 1 2 3 4 5 6 7 8 9 10 11 12 13 14 15 16 17 18
000
FTUS42 KTAE 181120
TAFABY
TAF
KABY 181120Z 1812/1912 00000KT 1/2SM FG VV002
      TEMPO 1812/1814 3SM BR SCT004
     FM181400 22006KT P6SM OVC015
     FM182000 22005KT P6SM OVC050
      TEMPO 1820/1823 2SM BR SCT025 OVC050
     FM190000 19005KT 6SM RA OVC050=

USA.gov is the U.S. government's official web portal to all federal, state and local government web resources and services.